createdAt,value
2022-10-23T00:01:39.736Z,12.12
2022-10-23T00:06:41.799Z,12.11
2022-10-23T00:11:43.694Z,12.19
2022-10-23T00:16:45.563Z,12.17
2022-10-23T00:21:46.999Z,12.13
2022-10-23T00:26:50.419Z,12.09
2022-10-23T00:31:51.849Z,12.00
2022-10-23T00:36:53.291Z,12.06
2022-10-23T00:41:54.909Z,12.13
2022-10-23T00:46:57.407Z,12.01
2022-10-23T00:52:04.816Z,11.97
2022-10-23T00:57:12.721Z,11.92
2022-10-23T01:02:15.173Z,11.86
2022-10-23T01:07:27.290Z,11.85
2022-10-23T01:12:46.874Z,11.81
2022-10-23T01:17:53.956Z,11.69
2022-10-23T01:23:04.382Z,11.65
2022-10-23T01:28:11.026Z,11.77
2022-10-23T01:33:25.725Z,11.75
2022-10-23T01:38:46.480Z,11.66
2022-10-23T01:44:23.366Z,11.62
2022-10-23T01:49:25.150Z,11.57
2022-10-23T01:54:33.700Z,11.45
2022-10-23T01:59:39.965Z,11.43
2022-10-23T02:04:51.042Z,11.50
2022-10-23T02:09:52.746Z,11.46
2022-10-23T02:15:00.798Z,11.51
2022-10-23T02:20:08.372Z,11.50
2022-10-23T02:25:20.410Z,11.37
2022-10-23T02:30:23.875Z,11.40
2022-10-23T02:35:41.617Z,11.33
2022-10-23T02:41:01.791Z,11.23
2022-10-23T02:46:20.973Z,11.22
2022-10-23T02:51:44.749Z,11.28
2022-10-23T02:56:58.091Z,11.20
2022-10-23T03:02:12.765Z,11.18
2022-10-23T03:07:15.209Z,11.16
2022-10-23T03:12:17.450Z,11.18
2022-10-23T03:17:18.875Z,11.22
2022-10-23T03:22:21.699Z,11.09
2022-10-23T03:27:23.127Z,11.11
2022-10-23T03:32:24.577Z,11.02
2022-10-23T03:37:26.433Z,10.99
2022-10-23T03:42:27.952Z,10.89
2022-10-23T03:47:29.842Z,10.95
2022-10-23T03:52:32.326Z,10.89
2022-10-23T03:57:33.731Z,10.86
2022-10-23T04:02:35.245Z,10.88
2022-10-23T04:07:38.211Z,10.85
2022-10-23T04:12:39.890Z,10.96
2022-10-23T04:17:41.387Z,10.94
2022-10-23T04:22:43.112Z,11.04
2022-10-23T04:27:45.672Z,10.97
2022-10-23T04:32:50.851Z,10.92
2022-10-23T04:37:52.278Z,10.86
2022-10-23T04:42:53.682Z,10.86
2022-10-23T04:47:55.283Z,10.88
2022-10-23T04:52:58.953Z,10.77
2022-10-23T04:58:20.001Z,10.66
2022-10-23T05:03:23.249Z,10.53
2022-10-23T05:08:25.034Z,10.60
2022-10-23T05:13:44.894Z,10.60
2022-10-23T05:18:47.884Z,10.49
2022-10-23T05:23:50.142Z,10.39
2022-10-23T05:28:52.292Z,10.42
2022-10-23T05:33:55.586Z,10.37
2022-10-23T05:38:58.801Z,10.31
2022-10-23T05:44:01.115Z,10.21
2022-10-23T05:49:27.830Z,10.20
2022-10-23T05:54:52.594Z,10.19
2022-10-23T06:00:13.007Z,10.20
2022-10-23T06:05:17.095Z,10.21
2022-10-23T06:10:28.926Z,10.34
2022-10-23T06:15:34.412Z,10.28
2022-10-23T06:20:43.946Z,10.35
2022-10-23T06:25:56.713Z,10.33
2022-10-23T06:31:08.305Z,10.41
2022-10-23T06:36:10.277Z,10.44
2022-10-23T06:41:18.277Z,10.57
2022-10-23T06:46:23.721Z,10.49
2022-10-23T06:51:43.707Z,10.56
2022-10-23T06:56:47.867Z,10.65
2022-10-23T07:01:52.565Z,10.81
2022-10-23T07:06:57.581Z,10.94
2022-10-23T07:12:05.336Z,11.15
2022-10-23T07:17:16.955Z,11.37
2022-10-23T07:22:18.928Z,11.51
2022-10-23T07:27:38.173Z,11.64
2022-10-23T07:32:41.479Z,11.85
2022-10-23T07:38:01.392Z,12.23
2022-10-23T07:43:06.665Z,12.49
2022-10-23T07:48:09.714Z,12.75
2022-10-23T07:53:29.580Z,13.04
2022-10-23T07:58:38.339Z,13.30
2022-10-23T08:03:45.708Z,13.65
2022-10-23T08:08:47.248Z,13.80
2022-10-23T08:13:48.720Z,13.73
2022-10-23T08:18:51.394Z,13.83
2022-10-23T08:23:58.477Z,14.10
2022-10-23T08:29:00.972Z,14.34
2022-10-23T08:34:02.974Z,14.53
2022-10-23T08:39:06.027Z,14.59
2022-10-23T08:44:27.866Z,14.69
2022-10-23T08:49:38.961Z,14.69
2022-10-23T08:55:25.335Z,14.78
2022-10-23T09:00:28.067Z,15.06
2022-10-23T09:05:43.173Z,15.40
2022-10-23T09:11:05.740Z,15.66
2022-10-23T09:16:33.298Z,15.97
2022-10-23T09:21:35.907Z,16.13
2022-10-23T09:26:37.311Z,16.29
2022-10-23T09:31:51.823Z,16.40
2022-10-23T09:37:17.122Z,16.45
2022-10-23T09:42:24.267Z,16.38
2022-10-23T09:47:25.986Z,16.30
2022-10-23T09:52:35.777Z,16.30
2022-10-23T09:57:41.300Z,16.47
2022-10-23T10:02:54.266Z,16.64
2022-10-23T10:08:20.138Z,16.76
2022-10-23T10:13:33.572Z,16.92
2022-10-23T10:18:53.810Z,17.19
2022-10-23T10:24:17.296Z,17.63
2022-10-23T10:29:55.543Z,18.35
2022-10-23T10:35:23.774Z,19.48
2022-10-23T10:40:25.123Z,20.53
2022-10-23T10:45:33.262Z,20.80
2022-10-23T10:50:46.990Z,20.50
2022-10-23T10:55:58.664Z,20.28
2022-10-23T11:01:03.391Z,20.18
2022-10-23T11:06:12.125Z,19.96
2022-10-23T11:11:26.639Z,19.67
2022-10-23T11:16:36.511Z,19.37
2022-10-23T11:21:47.431Z,19.06
2022-10-23T11:27:05.899Z,18.99
2022-10-23T11:37:39.611Z,18.68
2022-10-23T11:42:41.373Z,18.65
2022-10-23T11:47:43.272Z,18.55
2022-10-23T11:53:13.760Z,18.35
2022-10-23T11:58:21.599Z,18.43
2022-10-23T12:03:30.857Z,18.45
2022-10-23T12:08:35.640Z,18.45
2022-10-23T12:13:36.990Z,18.48
2022-10-23T12:18:50.752Z,18.57
2022-10-23T12:24:13.558Z,19.11
2022-10-23T12:29:35.835Z,21.29
2022-10-23T12:35:07.660Z,21.98
2022-10-23T12:40:10.364Z,21.32
2022-10-23T12:45:24.454Z,20.61
2022-10-23T12:50:29.178Z,19.92
2022-10-23T12:55:46.524Z,19.49
2022-10-23T13:00:54.107Z,19.07
2022-10-23T13:05:57.417Z,18.73
2022-10-23T13:10:59.040Z,18.35
2022-10-23T13:16:13.862Z,18.11
2022-10-23T13:21:21.758Z,17.92
2022-10-23T13:26:37.491Z,18.16
2022-10-23T13:31:38.873Z,18.20
2022-10-23T13:36:53.438Z,18.16
2022-10-23T13:41:55.658Z,18.07
2022-10-23T13:46:57.057Z,17.92
2022-10-23T13:51:58.461Z,18.06
2022-10-23T13:57:00.038Z,18.17
2022-10-23T14:02:01.485Z,18.26
2022-10-23T14:07:03.036Z,18.45
2022-10-23T14:12:04.771Z,18.52
2022-10-23T14:17:06.188Z,18.51
2022-10-23T14:22:07.634Z,18.56
2022-10-23T14:27:09.018Z,18.64
2022-10-23T14:32:10.482Z,18.91
2022-10-23T14:37:11.866Z,19.08
2022-10-23T14:42:14.001Z,19.09
2022-10-23T14:47:16.494Z,18.98
2022-10-23T14:52:17.943Z,18.61
2022-10-23T14:57:20.780Z,18.37
2022-10-23T15:02:22.175Z,18.23
2022-10-23T15:07:23.803Z,17.97
2022-10-23T15:12:25.231Z,17.79
2022-10-23T15:17:26.702Z,17.56
2022-10-23T15:22:28.162Z,17.46
2022-10-23T15:27:29.613Z,17.35
2022-10-23T15:32:31.084Z,17.26
2022-10-23T15:37:32.851Z,17.23
2022-10-23T15:42:34.243Z,17.16
2022-10-23T15:47:35.651Z,16.90
2022-10-23T15:52:37.073Z,16.80
2022-10-23T15:57:39.324Z,16.74
2022-10-23T16:02:40.939Z,16.70
2022-10-23T16:07:42.473Z,16.72
2022-10-23T16:12:43.924Z,16.64
2022-10-23T16:17:45.894Z,16.55
2022-10-23T16:22:47.445Z,16.49
2022-10-23T16:27:48.856Z,16.47
2022-10-23T16:32:50.266Z,16.44
2022-10-23T16:37:51.638Z,16.32
2022-10-23T16:42:57.446Z,16.12
2022-10-23T16:48:06.281Z,15.94
2022-10-23T16:53:07.810Z,15.80
2022-10-23T16:58:09.206Z,15.85
2022-10-23T17:03:10.597Z,15.80
2022-10-23T17:08:11.982Z,15.79
2022-10-23T17:13:13.441Z,15.74
2022-10-23T17:18:14.856Z,15.71
2022-10-23T17:23:16.235Z,15.64
2022-10-23T17:28:17.732Z,15.60
2022-10-23T17:33:19.554Z,15.64
2022-10-23T17:38:20.968Z,15.53
2022-10-23T17:43:22.392Z,15.52
2022-10-23T17:48:24.388Z,15.66
2022-10-23T17:53:25.856Z,15.57
2022-10-23T17:58:27.319Z,15.48
2022-10-23T18:03:28.733Z,15.41
2022-10-23T18:08:30.198Z,15.45
2022-10-23T18:13:33.565Z,15.46
2022-10-23T18:18:34.980Z,15.54
2022-10-23T18:23:37.025Z,15.69
2022-10-23T18:28:38.474Z,15.62
2022-10-23T18:33:40.734Z,15.60
2022-10-23T18:38:42.232Z,15.45
2022-10-23T18:43:44.503Z,15.51
2022-10-23T18:48:47.542Z,15.53
2022-10-23T18:53:49.032Z,15.56
2022-10-23T18:58:51.760Z,15.53
2022-10-23T19:03:53.934Z,15.58
2022-10-23T19:08:55.506Z,15.66
2022-10-23T19:13:56.917Z,15.65
2022-10-23T19:19:02.776Z,15.67
2022-10-23T19:24:17.389Z,15.68
2022-10-23T19:29:23.311Z,15.64
2022-10-23T19:34:24.952Z,15.66
2022-10-23T19:39:26.521Z,15.68
2022-10-23T19:44:27.984Z,15.72
2022-10-23T19:49:29.399Z,15.64
2022-10-23T19:54:30.778Z,15.71
2022-10-23T19:59:32.156Z,15.80
2022-10-23T20:04:34.453Z,15.77
2022-10-23T20:09:35.890Z,15.72
2022-10-23T20:14:37.299Z,15.74
2022-10-23T20:19:38.773Z,15.93
2022-10-23T20:24:40.483Z,16.30
2022-10-23T20:29:42.406Z,16.59
2022-10-23T20:34:43.854Z,16.89
2022-10-23T20:39:45.277Z,17.04
2022-10-23T20:44:46.693Z,17.18
2022-10-23T20:49:48.090Z,17.23
2022-10-23T20:54:49.470Z,17.25
2022-10-23T20:59:50.884Z,17.24
2022-10-23T21:04:52.270Z,17.31
2022-10-23T21:09:53.721Z,17.32
2022-10-23T21:14:55.120Z,17.40
2022-10-23T21:19:56.523Z,17.42
2022-10-23T21:24:57.938Z,17.37
2022-10-23T21:29:59.333Z,17.38
2022-10-23T21:35:00.744Z,17.40
2022-10-23T21:40:02.165Z,17.36
2022-10-23T21:45:03.918Z,17.25
2022-10-23T21:50:05.875Z,17.07
2022-10-23T21:55:07.874Z,16.97
2022-10-23T22:00:09.930Z,16.87
2022-10-23T22:05:14.504Z,16.83
2022-10-23T22:10:16.014Z,16.68
2022-10-23T22:15:17.550Z,16.51
2022-10-23T22:20:19.012Z,16.44
2022-10-23T22:25:20.423Z,16.36
2022-10-23T22:30:21.822Z,16.32
2022-10-23T22:35:23.259Z,16.31
2022-10-23T22:40:24.727Z,16.35
2022-10-23T22:45:26.149Z,16.47
2022-10-23T22:50:27.795Z,16.55
2022-10-23T22:55:29.188Z,16.61
2022-10-23T23:00:30.589Z,16.64
2022-10-23T23:05:32.056Z,16.57
2022-10-23T23:10:33.467Z,16.43
2022-10-23T23:15:40.248Z,16.45
2022-10-23T23:20:41.963Z,16.42
2022-10-23T23:25:47.964Z,16.43
2022-10-23T23:30:49.715Z,16.46
2022-10-23T23:35:51.314Z,16.53
2022-10-23T23:40:53.912Z,16.54
2022-10-23T23:45:55.826Z,16.51
2022-10-23T23:50:57.214Z,16.46
2022-10-23T23:55:58.633Z,16.41
